EST,Max TemperatureF,Mean TemperatureF,Min TemperatureF,Max Dew PointF,MeanDew PointF,Min DewpointF,Max Humidity, Mean Humidity, Min Humidity, Max Sea Level PressureIn, Mean Sea Level PressureIn, Min Sea Level PressureIn, Max VisibilityMiles, Mean VisibilityMiles, Min VisibilityMiles, Max Wind SpeedMPH, Mean Wind SpeedMPH, Max Gust SpeedMPH,PrecipitationIn, CloudCover, Events, WindDirDegrees
2011-11-1,64,48,31,42,35,30,100,65,30,30.36,30.30,30.23,10,7,0,10,1,13,0.00,1,Fog,26
2011-11-2,66,51,35,41,37,33,92,65,37,30.40,30.29,30.20,10,10,10,8,1,10,0.00,0,,240
2011-11-3,65,50,35,54,46,34,100,76,52,30.18,29.95,29.83,10,5,0,18,5,24,0.60,6,Fog-Rain,344
2011-11-4,56,50,43,47,43,40,100,83,66,30.18,30.02,29.89,10,8,3,17,6,23,0.16,7,Rain,266
2011-11-5,63,48,32,45,38,32,100,73,46,30.31,30.24,30.17,10,4,0,9,3,12,0.00,2,Fog,53
2011-11-6,63,48,32,41,36,30,100,71,42,30.43,30.36,30.26,10,5,0,7,2,22,0.00,1,Fog,56
2011-11-7,69,53,36,47,43,35,100,73,45,30.42,30.33,30.25,10,9,6,7,1,8,0.00,0,,11
2011-11-8,71,55,38,49,43,37,100,74,47,30.27,30.22,30.10,10,6,0,8,2,10,0.00,2,Fog,34
2011-11-9,68,56,43,58,53,43,93,76,59,30.10,30.02,29.96,10,7,2,20,5,24,0.20,6,Rain,257
2011-11-10,54,47,39,45,29,17,83,58,32,30.14,30.08,30.00,10,10,10,18,9,24,0.00,4,,328
2011-11-11,50,39,27,27,22,18,81,55,29,30.22,30.17,30.13,10,10,10,13,4,22,0.00,0,,205
2011-11-12,62,47,31,34,30,26,85,56,27,30.27,30.20,30.14,10,10,10,23,8,28,0.00,0,,239
2011-11-13,67,56,45,51,39,25,60,48,35,30.16,30.06,29.97,10,10,10,31,14,41,0.00,4,,211
2011-11-14,72,68,63,59,56,52,78,71,63,30.06,29.98,29.90,10,10,10,26,14,37,0.01,7,Rain,211
2011-11-15,71,67,62,64,62,59,93,83,73,29.94,29.90,29.85,10,7,2,23,12,28,0.33,7,Rain,218
2011-11-16,70,61,52,64,56,47,100,89,78,29.94,29.82,29.70,10,6,1,24,7,33,1.25,8,Rain,323
2011-11-17,52,41,30,47,32,15,89,60,31,30.38,30.14,29.93,10,10,5,18,8,24,0.05,5,Rain,354
2011-11-18,53,40,26,28,24,20,92,61,30,30.47,30.38,30.30,10,10,10,6,1,9,0.00,0,,53
2011-11-19,65,48,31,49,37,27,89,68,46,30.37,30.28,30.19,10,10,8,9,3,12,0.00,4,,270
2011-11-20,66,58,50,58,52,47,90,77,63,30.28,30.23,30.21,10,10,8,13,6,16,0.08,6,Rain,274
2011-11-21,66,62,57,61,59,55,100,94,87,30.28,30.21,30.12,10,4,0,15,4,18,1.03,7,Fog-Rain,284
2011-11-22,75,65,54,63,57,54,100,79,57,30.13,30.01,29.86,10,3,0,25,7,36,0.76,7,Fog-Rain-Thunderstorm,216
2011-11-23,60,52,43,57,46,38,93,76,59,30.29,30.08,29.86,10,10,10,23,9,30,0.02,6,Rain,308
2011-11-24,60,46,32,41,37,30,100,74,47,30.39,30.35,30.30,10,8,2,14,2,16,0.00,0,,32
2011-11-25,62,46,30,45,37,32,100,72,44,30.39,30.32,30.24,10,7,2,3,0,3,0.00,2,,280
2011-11-26,65,51,37,51,42,36,100,76,52,30.31,30.20,30.06,10,10,8,12,3,21,0.00,4,,142
2011-11-27,67,62,57,58,54,48,100,78,56,30.03,29.93,29.84,10,6,2,26,8,35,0.68,7,Rain,219
2011-11-28,60,50,40,56,51,36,100,93,86,29.84,29.74,29.63,10,4,1,26,10,32,1.91,8,Rain,295
2011-11-29,42,40,37,35,34,32,92,83,73,29.94,29.83,29.75,10,10,6,23,14,29,T,7,Rain,230
2011-11-30,44,38,32,36,32,28,92,75,57,30.24,30.09,29.96,10,10,10,17,6,24,T,5,Rain,249